Time;durP1;ratioP1;P1;durP2;ratioP2;P2;SDS_P1;SDS_P2;PMS_P1;PMS_P2;Temp;Humidity;BMP_temperature;BMP_pressure;BME280_temperature;BME280_humidity;BME280_pressure;Samples;Min_cycle;Max_cycle;Signal;HPM_P1;HPM_P2
2022/07/03 00:01:03;;;;;;;5.50;5.00;;;;;;;21.20;47.73;101384.41;5038170;28;20232;-67
2022/07/03 00:03:28;;;;;;;5.73;5.17;;;;;;;22.09;46.53;101383.00;5038690;28;20177;-68
2022/07/03 00:05:54;;;;;;;5.70;5.20;;;;;;;21.64;46.37;101386.00;5038084;28;20409;-67
2022/07/03 00:08:19;;;;;;;4.93;4.53;;;;;;;21.56;46.83;101382.69;5038129;28;20227;-67
2022/07/03 00:10:45;;;;;;;5.27;4.87;;;;;;;21.85;46.73;101377.47;5038538;28;20548;-67
2022/07/03 00:13:10;;;;;;;5.83;5.33;;;;;;;21.60;47.16;101379.91;5037140;28;20190;-67
2022/07/03 00:15:36;;;;;;;5.53;5.13;;;;;;;21.52;47.31;101377.41;5038172;28;20493;-67
2022/07/03 00:18:01;;;;;;;5.43;4.93;;;;;;;21.77;46.58;101376.81;5037944;28;20233;-67
2022/07/03 00:20:30;;;;;;;7.87;5.43;;;;;;;22.40;45.97;101360.88;5037961;28;20173;-68
2022/07/03 00:22:57;;;;;;;6.57;5.87;;;;;;;21.56;46.57;101378.22;5038177;28;20166;-69
2022/07/03 00:25:23;;;;;;;6.80;5.73;;;;;;;21.68;47.13;101374.41;5037264;28;20425;-68
2022/07/03 00:27:49;;;;;;;7.43;5.57;;;;;;;21.99;46.52;101368.25;5037039;28;20420;-67
2022/07/03 00:30:15;;;;;;;6.40;5.50;;;;;;;22.38;46.04;101354.75;5038394;28;20560;-68
2022/07/03 00:32:42;;;;;;;5.97;5.57;;;;;;;22.00;46.34;101357.59;5037009;28;20424;-67
2022/07/03 00:35:08;;;;;;;5.30;4.90;;;;;;;21.79;46.82;101352.88;5037577;28;20734;-68
2022/07/03 00:37:33;;;;;;;4.97;4.57;;;;;;;21.17;48.41;101362.38;5038168;28;20705;-68
2022/07/03 00:39:59;;;;;;;5.20;4.80;;;;;;;21.43;48.04;101361.72;5037978;28;20428;-67
2022/07/03 00:42:26;;;;;;;4.97;4.57;;;;;;;21.48;47.70;101356.31;5037043;28;20178;-68
2022/07/03 00:44:54;;;;;;;6.33;4.33;;;;;;;21.01;48.21;101352.16;5037851;28;20163;-68
2022/07/03 00:47:24;;;;;;;4.53;4.13;;;;;;;21.09;48.40;101356.41;5040159;28;20492;-68
2022/07/03 00:49:55;;;;;;;4.30;4.00;;;;;;;21.12;48.56;101341.31;5041792;28;20481;-67
2022/07/03 00:52:21;;;;;;;4.50;4.10;;;;;;;20.93;47.97;101342.66;5041090;28;20807;-67
2022/07/03 00:54:58;;;;;;;6.87;4.43;;;;;;;21.04;47.64;101337.97;5041688;28;20409;-67
2022/07/03 00:57:25;;;;;;;4.90;4.50;;;;;;;21.14;47.95;101333.31;5041555;28;20492;-68
2022/07/03 00:59:51;;;;;;;4.80;4.40;;;;;;;21.53;47.08;101331.44;5041628;28;20673;-68
2022/07/03 01:02:38;;;;;;;4.73;3.90;;;;;;;20.67;49.53;101336.16;5042285;28;20429;-68
2022/07/03 01:05:32;;;;;;;4.20;3.90;;;;;;;20.89;49.04;101331.28;5041490;28;20170;-68
2022/07/03 01:08:28;;;;;;;5.53;4.73;;;;;;;20.93;49.28;101327.63;5040862;28;20452;-67
2022/07/03 01:10:59;;;;;;;4.77;4.27;;;;;;;20.91;48.79;101325.94;5041582;28;20448;-69
2022/07/03 01:13:24;;;;;;;4.73;4.33;;;;;;;20.95;49.35;101338.19;5041324;28;20442;-68
2022/07/03 01:16:07;;;;;;;6.40;4.63;;;;;;;20.78;49.46;101325.34;5041389;28;20468;-68
2022/07/03 01:18:49;;;;;;;4.87;4.47;;;;;;;20.08;51.24;101324.19;5040534;28;20337;-68
2022/07/03 01:21:42;;;;;;;5.03;4.53;;;;;;;20.77;50.18;101326.22;5041416;28;20431;-68
2022/07/03 01:24:23;;;;;;;4.87;4.57;;;;;;;20.59;49.94;101328.38;5040460;28;20417;-68
2022/07/03 01:26:51;;;;;;;4.67;4.27;;;;;;;20.62;50.21;101317.72;5040590;28;20413;-68
2022/07/03 01:29:31;;;;;;;4.90;4.50;;;;;;;20.86;49.09;101303.06;5040555;28;20668;-68
2022/07/03 01:31:59;;;;;;;5.33;4.83;;;;;;;21.00;49.48;101304.50;5040526;28;20473;-68
2022/07/03 01:34:31;;;;;;;4.93;4.37;;;;;;;20.88;50.50;101304.78;5041084;28;20659;-68
2022/07/03 01:36:58;;;;;;;4.60;4.30;;;;;;;20.80;50.53;101308.50;5040030;28;20471;-68
2022/07/03 01:39:26;;;;;;;5.00;4.40;;;;;;;20.41;50.96;101303.19;5040141;28;20405;-68
2022/07/03 01:41:53;;;;;;;4.90;4.57;;;;;;;20.90;50.35;101297.66;5040806;28;20417;-68
2022/07/03 01:44:19;;;;;;;5.77;4.60;;;;;;;20.57;50.29;101286.94;5040692;28;20759;-67
2022/07/03 01:46:45;;;;;;;4.90;4.60;;;;;;;20.19;50.93;101293.06;5040788;28;20404;-69
2022/07/03 01:49:13;;;;;;;5.10;4.70;;;;;;;20.65;50.72;101292.94;5040877;28;20167;-67
2022/07/03 01:51:39;;;;;;;5.03;4.67;;;;;;;20.58;50.54;101288.66;5040047;28;20417;-66
2022/07/03 01:54:05;;;;;;;5.10;4.63;;;;;;;20.40;51.29;101280.25;5040141;28;20409;-67
2022/07/03 01:56:32;;;;;;;4.80;4.30;;;;;;;20.74;49.98;101276.81;5040644;28;20535;-67
2022/07/03 01:58:59;;;;;;;5.03;4.53;;;;;;;20.68;49.91;101282.25;5039326;28;20167;-68
2022/07/03 02:01:54;;;;;;;4.80;4.40;;;;;;;20.92;50.10;101271.97;5040950;28;20429;-68
2022/07/03 02:04:19;;;;;;;4.90;4.50;;;;;;;20.28;51.25;101278.75;5039592;28;20813;-68
2022/07/03 02:07:10;;;;;;;5.97;5.33;;;;;;;20.66;50.27;101284.06;5040492;28;20409;-68
2022/07/03 02:09:44;;;;;;;4.50;4.10;;;;;;;21.13;49.77;101273.22;5039941;28;20186;-67
2022/07/03 02:12:12;;;;;;;4.90;4.60;;;;;;;20.82;50.09;101272.25;5039666;28;20468;-68
2022/07/03 02:14:40;;;;;;;5.00;4.60;;;;;;;20.93;49.18;101276.38;5039967;28;20659;-67
2022/07/03 02:17:07;;;;;;;4.80;4.40;;;;;;;20.21;51.60;101285.06;5039824;28;20495;-68
2022/07/03 02:20:02;;;;;;;5.80;4.40;;;;;;;20.11;51.35;101276.47;5040576;28;20504;-68
2022/07/03 02:22:34;;;;;;;5.30;4.80;;;;;;;20.63;50.57;101276.19;5039965;28;20448;-67
2022/07/03 02:25:05;;;;;;;5.30;4.90;;;;;;;21.23;49.11;101265.91;5024704;28;20502;-67
2022/07/03 02:27:54;;;;;;;5.13;4.73;;;;;;;21.06;49.80;101266.34;5045676;28;20420;-67
2022/07/03 02:30:20;;;;;;;5.37;4.87;;;;;;;20.24;51.07;101263.84;5042594;28;20464;-68
2022/07/03 02:32:50;;;;;;;5.40;4.53;;;;;;;20.46;51.24;101260.72;5039266;28;20421;-68
2022/07/03 02:35:26;;;;;;;6.13;4.80;;;;;;;20.12;52.00;101267.63;5039960;28;20390;-68
2022/07/03 02:38:06;;;;;;;5.40;4.90;;;;;;;20.38;51.29;101262.63;5039070;28;20463;-68
2022/07/03 02:40:46;;;;;;;5.37;4.73;;;;;;;20.30;51.47;101261.06;5039221;28;20471;-66
2022/07/03 02:43:19;;;;;;;4.90;4.50;;;;;;;20.64;51.20;101257.59;5040314;28;20420;-67
2022/07/03 02:46:48;;;;;;;4.97;4.57;;;;;;;20.46;51.23;101258.94;5023006;28;20420;-66
2022/07/03 02:48:51;;;;;;;5.97;5.00;;;;;;;20.31;51.55;101264.56;5039779;28;20467;-68
2022/07/03 02:51:22;;;;;;;5.23;4.73;;;;;;;20.40;51.45;101261.69;5039376;28;20424;-68
2022/07/03 02:53:58;;;;;;;4.87;4.37;;;;;;;20.28;51.29;101265.53;5039498;28;20723;-67
2022/07/03 02:56:35;;;;;;;4.80;4.40;;;;;;;20.60;51.63;101263.03;5038901;28;20499;-67
2022/07/03 02:59:32;;;;;;;5.57;5.17;;;;;;;20.96;49.94;101265.69;5038956;28;20512;-68
2022/07/03 03:02:06;;;;;;;5.37;4.87;;;;;;;20.80;50.14;101266.09;5015258;28;20732;-68
2022/07/03 03:04:33;;;;;;;5.00;4.60;;;;;;;20.66;50.33;101262.88;5039277;28;20420;-68
2022/07/03 03:07:30;;;;;;;4.77;4.37;;;;;;;20.71;50.12;101261.00;5038828;28;20405;-68
2022/07/03 03:09:56;;;;;;;4.83;4.43;;;;;;;20.61;50.36;101257.69;5036368;28;20396;-69
2022/07/03 03:12:30;;;;;;;6.60;4.63;;;;;;;20.45;51.35;101265.13;5039541;28;20844;-66
2022/07/03 03:15:01;;;;;;;4.73;4.30;;;;;;;20.28;50.90;101262.88;5039048;28;20409;-68
2022/07/03 03:17:29;;;;;;;5.10;4.60;;;;;;;20.51;51.17;101246.44;5039018;28;20543;-68
2022/07/03 03:19:58;;;;;;;5.27;4.87;;;;;;;20.51;50.33;101241.16;5038434;28;20852;-67
2022/07/03 03:22:55;;;;;;;4.93;4.53;;;;;;;20.05;51.17;101241.31;5038308;28;20401;-66
2022/07/03 03:25:20;;;;;;;10.03;4.80;;;;;;;20.49;50.86;101242.09;5038262;28;20683;-67
2022/07/03 03:27:46;;;;;;;4.43;4.13;;;;;;;20.25;51.34;101244.38;5038906;28;20413;-68
2022/07/03 03:30:11;;;;;;;4.90;4.50;;;;;;;20.80;49.92;101234.28;5039186;28;20220;-67
2022/07/03 03:32:38;;;;;;;4.70;4.40;;;;;;;20.62;50.66;101234.72;5038970;28;20174;-66
2022/07/03 03:35:04;;;;;;;4.80;4.40;;;;;;;20.94;49.35;101231.28;5038555;28;20197;-68
2022/07/03 03:37:30;;;;;;;5.40;4.70;;;;;;;20.52;50.58;101229.63;5038636;28;20468;-68
2022/07/03 03:39:56;;;;;;;5.00;4.50;;;;;;;21.12;49.11;101229.94;5038441;28;20174;-67
2022/07/03 03:42:21;;;;;;;5.20;4.70;;;;;;;20.83;49.51;101246.59;5038631;28;20482;-69
2022/07/03 03:44:47;;;;;;;5.30;4.80;;;;;;;20.50;50.51;101235.91;5038621;28;20447;-67
2022/07/03 03:47:12;;;;;;;4.60;4.20;;;;;;;20.83;49.52;101236.84;5038678;28;20178;-67
2022/07/03 03:49:37;;;;;;;5.53;5.03;;;;;;;21.79;47.26;101226.34;5038340;28;20425;-67
2022/07/03 03:52:03;;;;;;;5.20;4.37;;;;;;;22.13;46.27;101230.63;5038509;28;20264;-67
2022/07/03 03:54:28;;;;;;;7.50;4.13;;;;;;;21.30;48.39;101230.38;5038284;28;20186;-68
2022/07/03 03:56:54;;;;;;;5.00;4.50;;;;;;;20.76;49.56;101231.78;5038761;28;20198;-67
2022/07/03 03:59:19;;;;;;;5.47;4.10;;;;;;;20.43;50.60;101226.34;5038355;28;20185;-67
2022/07/03 04:01:45;;;;;;;4.70;4.30;;;;;;;20.54;50.98;101224.31;5038359;28;20166;-67
2022/07/03 04:04:12;;;;;;;5.23;4.40;;;;;;;20.90;49.80;101221.66;5038511;28;20232;-68
2022/07/03 04:06:37;;;;;;;4.80;4.50;;;;;;;20.94;49.82;101214.53;5038281;28;20417;-67
2022/07/03 04:09:03;;;;;;;7.33;4.77;;;;;;;21.98;47.52;101216.03;5038259;28;20698;-67
2022/07/03 04:11:28;;;;;;;5.00;4.60;;;;;;;22.01;46.29;101225.69;5038784;28;20170;-68
2022/07/03 04:13:53;;;;;;;8.33;4.53;;;;;;;23.65;43.13;101209.59;5037985;28;20167;-67
2022/07/03 04:16:18;;;;;;;4.27;3.97;;;;;;;24.04;42.31;101206.34;5038123;28;20204;-68
2022/07/03 04:18:44;;;;;;;4.37;4.07;;;;;;;23.94;42.50;101213.00;5038113;28;20261;-68
2022/07/03 04:21:09;;;;;;;4.80;4.47;;;;;;;24.25;41.81;101209.09;5037414;28;20537;-67
2022/07/03 04:23:35;;;;;;;4.57;4.27;;;;;;;25.13;39.95;101200.97;5038183;28;20227;-67
2022/07/03 04:26:06;;;;;;;6.20;4.20;;;;;;;24.70;40.19;101205.50;5037894;28;20524;-67
2022/07/03 04:28:32;;;;;;;4.73;4.33;;;;;;;24.91;40.01;101197.50;5038241;28;20541;-68
2022/07/03 04:30:57;;;;;;;4.57;4.17;;;;;;;25.35;38.58;101200.06;5038361;28;20424;-68
2022/07/03 04:33:23;;;;;;;4.50;4.10;;;;;;;25.37;38.82;101198.16;5037870;28;20179;-67
2022/07/03 04:35:48;;;;;;;5.60;3.80;;;;;;;26.32;36.88;101202.69;5037943;28;20174;-68
2022/07/03 04:38:13;;;;;;;4.10;3.70;;;;;;;26.72;36.82;101204.25;5038134;28;20284;-66
2022/07/03 04:40:39;;;;;;;4.40;4.10;;;;;;;27.05;35.71;101207.94;5037873;28;20255;-67
2022/07/03 04:43:04;;;;;;;4.17;3.77;;;;;;;24.60;39.87;101215.66;5037552;28;20170;-67
2022/07/03 04:45:29;;;;;;;4.30;4.00;;;;;;;26.42;36.82;101201.25;5038349;28;20170;-69
2022/07/03 04:47:55;;;;;;;4.20;3.90;;;;;;;25.69;38.48;101211.84;5037877;28;20174;-68
2022/07/03 04:50:20;;;;;;;4.53;4.07;;;;;;;24.49;40.65;101212.53;5037855;28;20174;-67
2022/07/03 04:52:46;;;;;;;4.47;4.17;;;;;;;25.09;39.49;101215.38;5038277;28;20171;-68
2022/07/03 04:55:12;;;;;;;4.40;4.10;;;;;;;26.59;37.11;101212.91;5037472;28;20185;-67
2022/07/03 04:57:37;;;;;;;4.43;4.13;;;;;;;25.41;38.18;101223.81;5037539;28;20202;-68
2022/07/03 05:00:04;;;;;;;4.70;4.20;;;;;;;26.76;36.11;101242.38;5038049;28;20431;-68
2022/07/03 05:02:29;;;;;;;4.43;3.90;;;;;;;27.15;35.58;101224.38;5037430;28;20178;-68
2022/07/03 05:04:54;;;;;;;4.20;3.90;;;;;;;26.79;36.63;101210.16;5037490;28;20413;-68
2022/07/03 05:07:20;;;;;;;4.27;3.87;;;;;;;27.74;34.78;101208.75;5038799;28;20174;-67
2022/07/03 05:09:45;;;;;;;4.40;3.90;;;;;;;28.96;32.97;101215.19;5037817;28;20178;-68
2022/07/03 05:12:11;;;;;;;5.67;3.70;;;;;;;29.53;31.62;101209.03;5037684;28;20194;-69
2022/07/03 05:14:36;;;;;;;5.77;3.80;;;;;;;28.70;33.60;101214.94;5037964;28;20295;-69
2022/07/03 05:17:01;;;;;;;4.73;4.30;;;;;;;28.75;32.59;101220.03;5037312;28;20246;-69
2022/07/03 05:19:27;;;;;;;4.43;4.07;;;;;;;28.94;33.09;101226.97;5037641;28;20257;-69
2022/07/03 05:21:52;;;;;;;4.17;3.87;;;;;;;29.89;31.39;101215.75;5038050;28;20243;-69
2022/07/03 05:24:17;;;;;;;4.27;3.87;;;;;;;30.28;30.66;101210.53;5038221;28;20178;-69
2022/07/03 05:26:43;;;;;;;4.20;3.90;;;;;;;29.99;31.27;101207.09;5037612;28;20186;-69
2022/07/03 05:29:08;;;;;;;4.07;3.77;;;;;;;29.32;32.60;101211.25;5037795;28;20189;-69
2022/07/03 05:31:33;;;;;;;6.80;3.90;;;;;;;30.95;30.00;101212.34;5037437;28;20551;-69
2022/07/03 05:33:59;;;;;;;4.47;4.07;;;;;;;31.07;29.50;101207.97;5040466;28;20193;-69
2022/07/03 05:36:24;;;;;;;4.30;4.00;;;;;;;30.12;31.10;101220.56;5041336;28;20603;-69
2022/07/03 05:41:33;;;;;;;3.70;3.40;;;;;;;31.60;28.38;101197.06;5040969;28;20241;-68
2022/07/03 05:43:59;;;;;;;4.10;3.60;;;;;;;31.79;28.52;101206.53;5040775;28;20783;-69
2022/07/03 05:46:24;;;;;;;4.30;3.90;;;;;;;30.95;29.89;101211.50;5040883;28;20202;-69
2022/07/03 05:48:49;;;;;;;4.10;3.80;;;;;;;30.70;30.21;101208.66;5041329;28;20171;-69
2022/07/03 05:51:15;;;;;;;3.87;3.57;;;;;;;31.88;28.74;101206.72;5040717;28;20462;-69
2022/07/03 05:53:40;;;;;;;3.90;3.60;;;;;;;31.15;29.58;101208.28;5040512;28;20213;-69
2022/07/03 05:56:06;;;;;;;4.13;3.73;;;;;;;31.51;28.68;101214.72;5041150;28;20224;-69
2022/07/03 05:58:31;;;;;;;3.90;3.40;;;;;;;31.37;29.02;101215.72;5040655;28;20206;-68
2022/07/03 06:00:56;;;;;;;4.10;3.70;;;;;;;32.15;27.97;101221.88;5040629;28;20179;-69
2022/07/03 06:03:22;;;;;;;3.67;3.37;;;;;;;30.29;30.65;101224.84;5040867;28;20185;-70
2022/07/03 06:05:47;;;;;;;4.03;3.67;;;;;;;30.83;30.02;101219.44;5040493;28;20285;-69
2022/07/03 06:08:12;;;;;;;5.40;3.70;;;;;;;32.17;28.32;101214.50;5040474;28;20174;-69
2022/07/03 06:10:38;;;;;;;3.80;3.50;;;;;;;31.98;28.39;101214.13;5040666;28;20182;-70
2022/07/03 06:13:03;;;;;;;4.23;3.50;;;;;;;31.36;29.76;101223.91;5040190;28;20194;-68
2022/07/03 06:15:29;;;;;;;3.83;3.53;;;;;;;31.49;28.67;101216.69;5040243;28;20556;-69
2022/07/03 06:17:54;;;;;;;5.00;3.37;;;;;;;29.93;30.67;101216.41;5040188;28;20476;-69
2022/07/03 06:20:19;;;;;;;4.17;3.50;;;;;;;32.39;27.29;101212.88;5040202;28;20483;-69
2022/07/03 06:22:45;;;;;;;4.37;3.37;;;;;;;32.25;28.15;101208.53;5040231;28;20177;-69
2022/07/03 06:25:12;;;;;;;3.37;3.07;;;;;;;31.90;27.49;101207.44;5039412;28;20186;-69
2022/07/03 06:27:37;;;;;;;3.70;3.30;;;;;;;33.39;26.20;101198.94;5040072;28;20202;-69
2022/07/03 06:30:04;;;;;;;4.77;3.30;;;;;;;32.15;27.31;101213.78;5040500;28;20460;-69
2022/07/03 06:32:29;;;;;;;3.30;3.10;;;;;;;31.88;28.63;101213.91;5044778;28;20217;-68
2022/07/03 06:34:55;;;;;;;3.90;3.50;;;;;;;31.33;28.71;101214.22;5059622;28;20547;-68
2022/07/03 06:37:21;;;;;;;3.33;2.90;;;;;;;31.78;28.42;101216.44;5060348;28;20197;-69
2022/07/03 06:39:46;;;;;;;4.30;3.17;;;;;;;31.68;28.79;101218.94;5059001;28;20491;-69
2022/07/03 06:42:12;;;;;;;3.47;3.20;;;;;;;32.56;27.50;101211.63;5059722;28;20196;-68
2022/07/03 06:44:37;;;;;;;3.67;3.20;;;;;;;33.73;26.16;101204.31;5059512;28;20252;-69
2022/07/03 06:47:03;;;;;;;4.37;3.10;;;;;;;33.12;26.75;101210.91;5059582;28;20183;-70
2022/07/03 06:49:29;;;;;;;3.50;3.20;;;;;;;31.98;29.03;101224.91;5059278;28;20207;-69
2022/07/03 06:51:54;;;;;;;5.37;3.27;;;;;;;32.65;28.39;101210.91;5059973;28;20173;-69
2022/07/03 06:54:19;;;;;;;3.40;2.93;;;;;;;32.32;28.33;101212.50;5058519;28;20424;-69
2022/07/03 06:56:45;;;;;;;3.53;3.20;;;;;;;32.73;27.78;101208.53;5059406;28;20210;-69
2022/07/03 06:59:10;;;;;;;3.73;3.30;;;;;;;33.46;27.51;101212.81;5059741;28;20553;-69
2022/07/03 07:01:35;;;;;;;3.00;2.80;;;;;;;32.58;27.77;101217.75;5048370;28;20201;-68
2022/07/03 07:04:02;;;;;;;3.20;3.00;;;;;;;32.80;28.25;101216.13;5058573;28;20177;-68
2022/07/03 07:06:27;;;;;;;3.50;3.20;;;;;;;33.24;27.07;101215.38;5058882;28;20181;-69
2022/07/03 07:08:53;;;;;;;3.40;3.10;;;;;;;34.23;25.81;101206.56;5059858;28;20430;-68
2022/07/03 07:11:18;;;;;;;3.20;3.00;;;;;;;33.91;25.95;101202.84;5059090;28;20570;-68
2022/07/03 07:13:43;;;;;;;3.40;3.20;;;;;;;33.29;26.89;101206.03;5059225;28;20190;-67
2022/07/03 07:16:09;;;;;;;4.13;3.20;;;;;;;32.17;27.94;101213.66;5058751;28;20260;-68
2022/07/03 07:18:34;;;;;;;3.50;3.20;;;;;;;33.06;27.65;101206.00;5042558;28;20244;-69
2022/07/03 07:21:00;;;;;;;6.73;3.77;;;;;;;32.51;27.64;101203.84;5039341;28;20174;-70
2022/07/03 07:23:25;;;;;;;3.40;3.10;;;;;;;34.07;26.52;101198.84;5038659;28;20257;-68
2022/07/03 07:25:51;;;;;;;3.60;3.30;;;;;;;33.00;27.23;101211.88;5038729;28;20170;-69
2022/07/03 07:28:16;;;;;;;3.33;3.00;;;;;;;33.18;26.76;101213.16;5037982;28;20174;-69
2022/07/03 07:30:42;;;;;;;3.27;3.00;;;;;;;33.99;26.04;101209.47;5038529;28;20277;-69
2022/07/03 07:33:07;;;;;;;8.07;3.10;;;;;;;33.18;27.10;101213.16;5038083;28;20600;-67
2022/07/03 07:35:33;;;;;;;3.53;3.13;;;;;;;33.54;26.44;101211.22;5038536;28;20174;-68
2022/07/03 07:37:58;;;;;;;4.43;2.93;;;;;;;34.14;25.48;101212.72;5035955;28;20235;-68
2022/07/03 07:40:24;;;;;;;3.73;2.90;;;;;;;33.14;26.76;101216.19;5038249;28;20460;-67
2022/07/03 07:42:49;;;;;;;3.07;2.77;;;;;;;33.98;26.16;101211.31;5038353;28;20178;-69
2022/07/03 07:45:15;;;;;;;3.43;3.10;;;;;;;34.11;25.92;101207.59;5038546;28;20247;-68
2022/07/03 07:47:40;;;;;;;3.23;2.93;;;;;;;33.48;26.92;101211.72;5037354;28;20209;-68
2022/07/03 07:50:06;;;;;;;4.33;3.00;;;;;;;33.88;26.39;101211.22;5038298;28;20181;-68
2022/07/03 07:52:32;;;;;;;3.60;3.13;;;;;;;34.47;25.41;101211.78;5037582;28;20182;-68
2022/07/03 07:54:57;;;;;;;4.70;3.47;;;;;;;34.71;25.58;101214.25;5038134;28;20810;-68
2022/07/03 07:57:22;;;;;;;4.43;3.10;;;;;;;34.98;24.49;101212.91;5037656;28;20174;-67
2022/07/03 07:59:48;;;;;;;3.03;2.73;;;;;;;33.93;25.50;101218.09;5037821;28;20209;-67
2022/07/03 08:07:41;;;;;;;3.93;3.30;;;;;;;36.71;22.88;101207.38;5037912;28;20467;-68
2022/07/03 08:10:07;;;;;;;2.90;2.70;;;;;;;34.57;24.71;101207.31;5037911;28;20420;-69
2022/07/03 08:12:32;;;;;;;5.20;2.90;;;;;;;35.57;24.05;101213.19;5037352;28;20205;-69
2022/07/03 08:14:57;;;;;;;3.93;3.27;;;;;;;34.70;24.46;101217.94;5037773;28;20182;-70
2022/07/03 08:17:23;;;;;;;3.70;3.30;;;;;;;34.32;24.28;101219.34;5043049;28;20304;-70
2022/07/03 08:19:48;;;;;;;3.50;3.20;;;;;;;33.69;25.59;101232.59;5057365;28;20196;-69
2022/07/03 08:22:13;;;;;;;3.50;3.20;;;;;;;34.54;24.54;101220.25;5057692;28;20461;-70
2022/07/03 08:24:39;;;;;;;2.97;2.77;;;;;;;34.90;24.00;101223.53;5057135;28;20185;-70
2022/07/03 08:27:05;;;;;;;4.50;3.50;;;;;;;33.52;26.52;101223.16;5056930;28;20249;-69
2022/07/03 08:29:30;;;;;;;3.60;3.30;;;;;;;33.88;26.20;101221.16;5056960;28;20467;-71
2022/07/03 08:31:56;;;;;;;3.53;3.20;;;;;;;33.58;26.38;101230.75;5056652;28;20435;-69
2022/07/03 08:34:22;;;;;;;3.63;3.37;;;;;;;34.14;26.35;101224.44;5056540;28;20174;-69
2022/07/03 08:36:47;;;;;;;3.23;2.93;;;;;;;35.82;22.86;101217.28;5056924;28;20245;-68
2022/07/03 08:39:13;;;;;;;3.33;3.03;;;;;;;34.43;24.32;101225.72;5057238;28;20226;-69
2022/07/03 08:41:39;;;;;;;4.20;2.93;;;;;;;34.39;24.90;101219.69;5057196;28;20180;-67
2022/07/03 08:44:06;;;;;;;4.00;3.70;;;;;;;34.63;24.16;101219.47;5057323;28;20204;-66
2022/07/03 08:46:32;;;;;;;3.17;2.90;;;;;;;35.64;22.85;101218.94;5056339;28;20718;-67
2022/07/03 08:48:59;;;;;;;3.90;2.97;;;;;;;35.16;22.97;101223.97;5056202;28;20424;-68
2022/07/03 08:51:24;;;;;;;3.47;2.97;;;;;;;33.44;25.22;101221.06;5057121;28;20760;-68
2022/07/03 08:53:53;;;;;;;3.13;2.90;;;;;;;34.26;24.83;101225.22;5056688;28;20424;-69
2022/07/03 08:56:18;;;;;;;3.33;3.10;;;;;;;32.31;27.39;101232.34;5056755;28;20185;-68
2022/07/03 08:58:44;;;;;;;3.63;3.30;;;;;;;31.48;28.88;101232.97;5046441;28;20506;-67
2022/07/03 09:01:10;;;;;;;3.43;3.13;;;;;;;30.72;29.63;101230.09;5056912;28;20191;-69
2022/07/03 09:03:36;;;;;;;3.20;2.90;;;;;;;30.56;30.39;101233.78;5055126;28;20558;-68
2022/07/03 09:06:01;;;;;;;3.60;3.30;;;;;;;30.32;30.66;101232.72;5055693;28;20445;-67
2022/07/03 09:08:28;;;;;;;3.97;3.40;;;;;;;30.51;30.43;101244.03;5060824;28;20169;-67
2022/07/03 09:10:53;;;;;;;4.13;3.60;;;;;;;29.71;31.51;101247.31;5061010;28;20199;-68
2022/07/03 09:13:19;;;;;;;5.20;3.97;;;;;;;29.41;32.84;101250.09;5061176;28;20439;-67
2022/07/03 09:15:44;;;;;;;4.43;3.63;;;;;;;29.52;32.92;101249.41;5061180;28;20170;-67
2022/07/03 09:18:09;;;;;;;5.53;3.70;;;;;;;29.97;32.48;101242.13;5060969;28;20217;-67
2022/07/03 09:20:40;;;;;;;3.93;3.47;;;;;;;29.59;33.11;101249.91;5061590;28;20173;-68
2022/07/03 09:23:17;;;;;;;3.43;3.13;;;;;;;29.71;33.19;101258.06;5060965;28;20323;-67
2022/07/03 09:26:02;;;;;;;4.63;3.50;;;;;;;28.85;34.44;101257.94;5061065;28;20400;-66
2022/07/03 09:28:51;;;;;;;5.93;3.60;;;;;;;28.58;35.20;101258.56;5060802;28;20684;-66
2022/07/03 09:31:22;;;;;;;4.00;3.50;;;;;;;28.52;34.84;101259.78;5060940;28;20396;-68
2022/07/03 09:34:07;;;;;;;4.80;3.67;;;;;;;28.51;35.16;101259.84;5060488;28;20498;-68
2022/07/03 09:36:47;;;;;;;5.40;3.57;;;;;;;28.48;35.30;101258.22;5060306;28;20455;-67
2022/07/03 09:39:30;;;;;;;4.87;3.60;;;;;;;28.73;34.92;101257.69;5060973;28;20419;-68
2022/07/03 09:42:00;;;;;;;3.73;3.33;;;;;;;28.78;34.96;101260.09;5059789;28;20447;-67
2022/07/03 09:44:46;;;;;;;4.10;3.80;;;;;;;28.81;36.17;101261.75;5060482;28;20682;-67
2022/07/03 09:47:25;;;;;;;4.10;3.70;;;;;;;29.99;33.68;101259.00;5059883;28;20869;-67
2022/07/03 09:50:02;;;;;;;4.07;3.67;;;;;;;30.60;31.91;101247.06;5060297;28;20435;-67
2022/07/03 09:52:36;;;;;;;4.30;3.40;;;;;;;30.99;31.47;101248.00;5060661;28;20415;-68
2022/07/03 09:55:10;;;;;;;5.60;3.70;;;;;;;31.99;30.09;101248.19;5060036;28;20424;-66
2022/07/03 09:57:58;;;;;;;5.13;3.30;;;;;;;33.12;28.88;101246.03;5060347;28;20400;-66
2022/07/03 10:00:29;;;;;;;3.47;3.20;;;;;;;33.13;28.21;101238.81;5060271;28;20423;-66
2022/07/03 10:02:57;;;;;;;3.60;3.30;;;;;;;33.48;27.66;101230.63;5060284;28;20944;-67
2022/07/03 10:05:35;;;;;;;4.17;3.30;;;;;;;32.80;28.61;101238.63;5060374;28;20802;-66
2022/07/03 10:08:03;;;;;;;3.70;3.27;;;;;;;33.31;28.32;101228.41;5059452;28;20460;-68
2022/07/03 10:10:33;;;;;;;4.20;2.90;;;;;;;34.26;26.72;101233.34;5062895;28;20417;-68
2022/07/03 10:12:59;;;;;;;3.37;3.07;;;;;;;33.67;27.55;101231.88;5060026;28;20424;-68
2022/07/03 10:15:27;;;;;;;3.50;3.20;;;;;;;33.72;27.42;101229.63;5060699;28;20418;-68
2022/07/03 10:17:56;;;;;;;3.80;3.10;;;;;;;34.56;26.31;101229.97;5059769;28;20458;-68
2022/07/03 10:20:32;;;;;;;4.70;2.83;;;;;;;34.46;26.18;101233.56;5058942;28;20431;-68
2022/07/03 10:22:57;;;;;;;3.30;2.90;;;;;;;33.88;26.25;101229.28;5059550;28;20832;-68
2022/07/03 10:25:23;;;;;;;4.10;3.00;;;;;;;34.43;26.70;101234.69;5059935;28;20481;-67
2022/07/03 10:27:49;;;;;;;3.20;2.90;;;;;;;33.94;25.81;101231.50;5060106;28;20250;-69
2022/07/03 10:30:16;;;;;;;3.40;2.90;;;;;;;32.95;25.75;101238.38;5059902;28;20173;-66
2022/07/03 10:32:44;;;;;;;3.10;2.90;;;;;;;33.45;26.08;101233.59;5059720;28;20177;-66
2022/07/03 10:35:10;;;;;;;3.23;2.93;;;;;;;35.10;23.35;101227.22;5060060;28;20445;-66
2022/07/03 10:37:49;;;;;;;3.67;2.40;;;;;;;33.87;24.00;101223.00;5058987;28;20415;-65
2022/07/03 10:46:16;;;;;;;3.27;2.93;;;;;;;33.34;25.84;101225.47;5059065;28;20414;-67
2022/07/03 10:48:55;;;;;;;3.70;3.17;;;;;;;34.86;24.44;101225.66;5058688;28;20419;-67
2022/07/03 10:51:21;;;;;;;3.47;3.00;;;;;;;34.76;25.18;101235.50;5059412;28;20420;-67
2022/07/03 10:53:47;;;;;;;3.60;3.10;;;;;;;34.02;24.51;101233.56;5059132;28;20511;-67
2022/07/03 10:56:14;;;;;;;3.40;2.30;;;;;;;34.16;23.45;101230.56;5059181;28;20511;-67
2022/07/03 10:58:59;;;;;;;2.47;2.27;;;;;;;32.77;25.12;101238.81;5059758;28;20446;-67
2022/07/03 11:01:33;;;;;;;2.73;2.53;;;;;;;34.30;22.95;101223.13;5059335;28;20415;-67
2022/07/03 11:04:00;;;;;;;4.00;2.60;;;;;;;34.73;23.32;101224.94;5058989;28;20665;-67
2022/07/03 11:06:44;;;;;;;2.90;2.60;;;;;;;33.88;24.92;101222.03;5059031;28;20537;-67
2022/07/03 11:09:10;;;;;;;4.00;2.80;;;;;;;32.57;24.76;101221.44;5059374;28;20419;-66
2022/07/03 11:11:55;;;;;;;3.77;2.80;;;;;;;33.28;25.86;101220.56;5057807;28;20438;-68
2022/07/03 11:14:22;;;;;;;2.87;2.60;;;;;;;32.84;25.73;101223.91;5059024;28;20420;-69
2022/07/03 11:16:47;;;;;;;3.13;2.83;;;;;;;31.92;26.84;101226.22;5058907;28;20412;-70
2022/07/03 11:19:12;;;;;;;3.37;3.00;;;;;;;32.68;26.30;101224.19;5059034;28;20420;-68
2022/07/03 11:21:42;;;;;;;3.60;3.20;;;;;;;32.64;26.76;101222.69;5059289;28;20166;-66
2022/07/03 11:24:23;;;;;;;3.30;3.00;;;;;;;32.58;26.46;101223.16;5058711;28;20197;-65
2022/07/03 11:27:22;;;;;;;3.00;2.70;;;;;;;32.02;27.75;101223.72;5058809;28;20463;-66
2022/07/03 11:29:53;;;;;;;2.90;2.70;;;;;;;32.84;26.67;101210.41;5058679;28;20427;-66
2022/07/03 11:32:45;;;;;;;3.40;3.10;;;;;;;33.20;27.04;101216.56;5059203;28;20428;-66
2022/07/03 11:35:42;;;;;;;5.90;3.00;;;;;;;32.72;27.35;101214.03;5058758;28;20403;-68
2022/07/03 11:38:08;;;;;;;2.60;2.40;;;;;;;32.19;27.64;101215.25;5058939;28;20817;-67
2022/07/03 11:40:35;;;;;;;2.90;2.67;;;;;;;32.08;27.75;101213.34;5058824;28;20416;-67
2022/07/03 11:43:00;;;;;;;3.47;3.00;;;;;;;31.87;27.05;101215.75;5057889;28;20200;-67
2022/07/03 11:45:29;;;;;;;3.80;3.23;;;;;;;32.86;25.73;101200.31;5059001;28;20790;-67
2022/07/03 11:47:55;;;;;;;3.63;3.10;;;;;;;32.13;27.44;101212.13;5058536;28;20205;-66